University of NC, North Carolina
Current Conditions -  °F | °C
As of 11:06 PM on Monday 22 Dec 2014 (Local Time) from KILM Reporting Station
Haze Haze  
Wind Chill: 42°   Ceiling: 200
Heat Index: 44°   Visibility: 0.75mi
Dew Point: 44°   Wind: 5mph
Humidity: 100%   Direction: 330°NNW
Pressure: 30.04"   Gusts: NA
Location:  34.2215°N, 77.8804°W
Report Text: KILM 230406Z 33004KT 3/4SM BR OVC002 07/07 A3004 RMK AO2 T00670067
Loading
Personal Weather Stations






























Interactive Weather Map New forecast layout! Learn more

10-Day Weather Forecast

Advertisements
Track Severe Weather on mobile